createdAt,value
2023-01-25T04:11:50.260Z,3.75
2023-01-25T04:14:22.781Z,3.83
2023-01-25T04:17:04.870Z,3.91
2023-01-25T04:19:37.242Z,3.98
2023-01-25T04:22:05.214Z,4.02
2023-01-25T04:24:36.251Z,4.06
2023-01-25T04:27:03.219Z,4.09
2023-01-25T04:29:41.241Z,4.12
2023-01-25T04:32:11.208Z,4.15
2023-01-25T04:34:38.794Z,4.19
2023-01-25T04:37:08.690Z,4.22
2023-01-25T04:39:42.084Z,4.24
2023-01-25T04:42:09.136Z,4.26
2023-01-25T04:44:37.105Z,4.29
2023-01-25T04:47:04.253Z,4.32
2023-01-25T04:49:31.711Z,4.33
2023-01-25T04:51:59.067Z,4.34
2023-01-25T04:54:26.210Z,4.33
2023-01-25T04:56:53.770Z,4.34
2023-01-25T04:59:20.724Z,4.34
2023-01-25T05:01:49.202Z,4.34
2023-01-25T05:04:16.239Z,4.33
2023-01-25T05:06:45.249Z,4.34
2023-01-25T05:09:13.202Z,4.35
2023-01-25T05:11:40.657Z,4.36
2023-01-25T05:14:11.903Z,4.37
2023-01-25T05:16:38.979Z,4.37
2023-01-25T05:19:09.115Z,4.38
2023-01-25T05:21:59.496Z,4.38
2023-01-25T05:24:49.044Z,4.38
2023-01-25T05:27:18.234Z,4.39
2023-01-25T05:30:06.171Z,4.40
2023-01-25T05:32:39.670Z,4.41
2023-01-25T05:35:07.692Z,4.40
2023-01-25T05:37:34.787Z,4.41
2023-01-25T05:40:05.839Z,4.39
2023-01-25T05:42:36.661Z,4.39
2023-01-25T05:45:05.144Z,4.39
2023-01-25T05:47:33.217Z,4.40
2023-01-25T05:50:01.119Z,4.39
2023-01-25T05:52:38.575Z,4.38
2023-01-25T05:55:06.933Z,4.38
2023-01-25T05:57:34.313Z,4.39
2023-01-25T06:00:04.046Z,4.41
2023-01-25T06:02:43.066Z,4.43
2023-01-25T06:05:15.829Z,4.45
2023-01-25T06:07:43.995Z,4.46
2023-01-25T06:10:11.862Z,4.47
2023-01-25T06:12:40.037Z,4.47
2023-01-25T06:15:08.590Z,4.46
2023-01-25T06:17:36.072Z,4.46
2023-01-25T06:20:27.595Z,4.47
2023-01-25T06:23:07.133Z,4.48
2023-01-25T06:25:38.175Z,4.48
2023-01-25T06:28:05.744Z,4.47
2023-01-25T06:30:33.802Z,4.46
2023-01-25T06:33:01.365Z,4.46
2023-01-25T06:35:28.820Z,4.48
2023-01-25T06:37:56.456Z,4.49
2023-01-25T06:40:23.528Z,4.51
2023-01-25T06:42:50.983Z,4.51
2023-01-25T06:45:18.351Z,4.51
2023-01-25T06:47:46.235Z,4.49
2023-01-25T06:50:13.251Z,4.47
2023-01-25T06:52:40.615Z,4.45
2023-01-25T06:55:09.819Z,4.44
2023-01-25T06:57:36.952Z,4.44
2023-01-25T07:00:05.505Z,4.43
2023-01-25T07:02:32.602Z,4.43
2023-01-25T07:05:03.007Z,4.44
2023-01-25T07:07:30.066Z,4.44
2023-01-25T07:09:59.969Z,4.44
2023-01-25T13:14:37.006Z,4.46
2023-01-25T13:17:24.737Z,4.55
2023-01-25T13:19:53.013Z,4.64
2023-01-25T13:22:45.105Z,4.69
2023-01-25T13:25:15.903Z,4.75
2023-01-25T13:27:43.052Z,4.79
2023-01-25T13:30:32.990Z,4.86
2023-01-25T13:33:04.158Z,4.96
2023-01-25T13:35:42.066Z,5.03
2023-01-25T13:38:11.164Z,5.04
2023-01-25T13:40:38.716Z,5.06
2023-01-25T13:43:11.600Z,5.09
2023-01-25T13:45:40.342Z,5.13
2023-01-25T13:48:10.603Z,5.15
2023-01-25T13:50:39.799Z,5.16
2023-01-25T13:53:15.779Z,5.15
2023-01-25T13:55:51.208Z,5.14
2023-01-25T13:58:22.653Z,5.13
2023-01-25T14:00:59.198Z,5.14
2023-01-25T14:03:47.054Z,5.14
2023-01-25T14:06:16.941Z,5.17
2023-01-25T14:08:45.553Z,5.18
2023-01-25T14:11:23.879Z,5.17
2023-01-25T14:13:59.536Z,5.15
2023-01-25T14:16:29.352Z,5.12
2023-01-25T14:19:24.028Z,5.10
2023-01-25T14:22:29.922Z,5.07
2023-01-25T14:25:09.023Z,5.03
2023-01-25T14:27:47.345Z,4.99
2023-01-25T14:30:24.200Z,4.96
2023-01-25T14:32:55.847Z,4.96
2023-01-25T14:35:49.264Z,4.96
2023-01-25T14:38:22.196Z,4.96
2023-01-25T14:40:49.777Z,4.96
2023-01-25T14:43:17.022Z,4.98
2023-01-25T14:45:44.817Z,5.00
2023-01-25T14:48:34.038Z,5.01
2023-01-25T14:51:12.767Z,5.01
2023-01-25T14:53:41.545Z,5.02
2023-01-25T14:56:30.816Z,5.03
2023-01-25T14:59:00.015Z,5.01
2023-01-25T15:01:32.364Z,5.01
2023-01-25T15:03:59.430Z,5.02
2023-01-25T15:06:26.791Z,5.01
2023-01-25T15:08:58.348Z,5.01
2023-01-25T15:11:45.817Z,5.01
2023-01-25T15:14:18.109Z,5.03
2023-01-25T15:16:45.837Z,5.05
2023-01-25T15:19:22.261Z,5.06
2023-01-25T15:21:49.514Z,5.03
2023-01-25T15:24:16.626Z,5.02
2023-01-25T15:26:48.537Z,5.00
2023-01-25T15:29:17.517Z,4.97
2023-01-25T15:31:44.554Z,4.96
2023-01-25T15:34:17.240Z,4.94
2023-01-25T15:36:44.492Z,4.95
2023-01-25T15:39:16.455Z,4.93
2023-01-25T15:41:43.917Z,4.93
2023-01-25T15:44:11.059Z,4.93
2023-01-25T15:46:39.745Z,4.93
2023-01-25T15:49:07.304Z,4.92
2023-01-25T15:51:35.798Z,4.92
2023-01-25T15:54:03.553Z,4.92
2023-01-25T15:56:32.029Z,4.92
2023-01-25T15:59:00.508Z,4.94
2023-01-25T22:11:45.508Z,3.52
2023-01-25T22:14:18.708Z,3.60
2023-01-25T22:16:45.862Z,3.67
2023-01-25T22:19:12.898Z,3.74
2023-01-25T22:21:39.946Z,3.81
2023-01-25T22:24:07.737Z,3.87
2023-01-25T22:26:59.043Z,3.92
2023-01-25T22:29:26.175Z,3.99
2023-01-25T22:31:56.256Z,4.08
2023-01-25T22:34:23.960Z,4.14
2023-01-25T22:36:51.104Z,4.18
2023-01-25T22:39:19.071Z,4.22
2023-01-25T22:41:46.626Z,4.25
2023-01-25T22:44:14.293Z,4.28
2023-01-25T22:46:43.790Z,4.31
2023-01-25T22:49:10.839Z,4.33
2023-01-25T22:51:38.194Z,4.33
2023-01-25T22:54:05.239Z,4.32
2023-01-25T22:56:32.808Z,4.32
2023-01-25T22:59:00.171Z,4.34
2023-01-25T23:01:32.011Z,4.36
2023-01-25T23:03:59.901Z,4.40
2023-01-25T23:06:31.221Z,4.42
2023-01-25T23:09:03.000Z,4.43
2023-01-25T23:11:36.402Z,4.43
2023-01-25T23:14:26.469Z,4.42
2023-01-25T23:17:13.696Z,4.41
2023-01-25T23:19:40.755Z,4.42
2023-01-25T23:22:08.188Z,4.45
2023-01-25T23:24:35.336Z,4.46
2023-01-25T23:27:02.384Z,4.45
2023-01-25T23:29:29.864Z,4.42
2023-01-25T23:31:56.913Z,4.42
2023-01-25T23:34:24.665Z,4.43
2023-01-25T23:36:52.419Z,4.45
2023-01-25T23:39:19.672Z,4.46
2023-01-25T23:41:47.738Z,4.46
2023-01-25T23:44:14.823Z,4.48
2023-01-25T23:46:42.163Z,4.49
2023-01-25T23:49:09.288Z,4.49
2023-01-25T23:51:36.540Z,4.46
2023-01-25T23:54:04.816Z,4.45
2023-01-25T23:56:32.167Z,4.44
2023-01-25T23:58:59.324Z,4.44
